| time (UTC) | temp F | wind direction | speed knots | gust knots | rain 1hr in | rain 24hr in | rain mn in | humidity % | barometer mb |
| 20260507134002 | 51 | 294 | 6.1 | 9.6 | 0.00 | 1.42 | 0.16 | 88 | 1004.5 |
| 20260507133003 | 51 | 303 | 5.2 | 9.6 | 0.00 | 1.42 | 0.16 | 89 | 1004.7 |
| 20260507132023 | 51 | 287 | 7.0 | 10.4 | 0.00 | 1.42 | 0.16 | 90 | 1004.8 |
| 20260507131003 | 50 | 286 | 7.0 | 11.3 | 0.00 | 1.42 | 0.16 | 91 | 1004.9 |
| 20260507130003 | 50 | 293 | 7.0 | 9.6 | 0.00 | 1.42 | 0.16 | 92 | 1005.1 |
| 20260507125003 | 49 | 286 | 6.1 | 10.4 | 0.00 | 1.42 | 0.16 | 92 | 1005.2 |
| 20260507124003 | 48 | 291 | 6.1 | 11.3 | 0.00 | 1.42 | 0.16 | 93 | 1005.1 |
| 20260507123002 | 48 | 300 | 6.1 | 9.6 | 0.00 | 1.42 | 0.16 | 94 | 1004.9 |
| 20260507122024 | 47 | 301 | 6.1 | 9.6 | 0.00 | 1.42 | 0.16 | 95 | 1004.9 |
| 20260507121024 | 47 | 288 | 6.1 | 10.4 | 0.00 | 1.42 | 0.16 | 95 | 1004.9 |
| 20260507120003 | 47 | 302 | 7.8 | 10.4 | 0.00 | 1.42 | 0.16 | 95 | 1004.5 |
| 20260507115003 | 47 | 294 | 6.1 | 9.6 | 0.00 | 1.42 | 0.16 | 95 | 1004.7 |
| 20260507114003 | 46 | 297 | 5.2 | 7.8 | 0.00 | 1.42 | 0.16 | 95 | 1004.8 |
| 20260507113004 | 47 | 287 | 5.2 | 7.8 | 0.00 | 1.42 | 0.16 | 95 | 1005.1 |
| 20260507112003 | 46 | 312 | 2.6 | 7.0 | 0.00 | 1.42 | 0.16 | 96 | 1005.1 |
| 20260507111002 | 46 | 330 | 2.6 | 7.8 | 0.00 | 1.42 | 0.16 | 96 | 1005.2 |
| 20260507110003 | 46 | 312 | 5.2 | 9.6 | 0.00 | 1.42 | 0.16 | 96 | 1005.0 |
| 20260507105003 | 46 | 294 | 7.0 | 8.7 | 0.00 | 1.42 | 0.16 | 95 | 1005.4 |
| 20260507104003 | 46 | 280 | 5.2 | 7.8 | 0.00 | 1.42 | 0.16 | 96 | 1006.0 |
| 20260507103003 | 46 | 288 | 6.1 | 8.7 | 0.00 | 1.42 | 0.16 | 95 | 1005.1 |
| 20260507102024 | 46 | 299 | 4.3 | 7.8 | 0.00 | 1.42 | 0.16 | 96 | 1005.0 |
| 20260507101002 | 46 | 294 | 6.1 | 8.7 | 0.00 | 1.42 | 0.16 | 96 | 1005.1 |
| 20260507100003 | 46 | 312 | 5.2 | 9.6 | 0.00 | 1.42 | 0.16 | 96 | 1004.6 |
| 20260507095002 | 46 | 303 | 6.1 | 9.6 | 0.01 | 1.42 | 0.16 | 96 | 1004.7 |
| 20260507094003 | 47 | 309 | 6.1 | 9.6 | 0.00 | 1.41 | 0.15 | 96 | 1004.5 |
| 20260507093003 | 47 | 311 | 7.0 | 11.3 | 0.00 | 1.41 | 0.15 | 96 | 1004.3 |
| 20260507092003 | 47 | 309 | 5.2 | 10.4 | 0.00 | 1.41 | 0.15 | 96 | 1004.6 |
| 20260507091003 | 48 | 302 | 6.1 | 10.4 | 0.00 | 1.41 | 0.15 | 96 | 1004.5 |
| 20260507090002 | 48 | 291 | 2.6 | 7.0 | 0.00 | 1.41 | 0.15 | 96 | 1004.6 |
| 20260507085003 | 49 | 317 | 3.5 | 6.1 | 0.00 | 1.41 | 0.15 | 96 | 1004.3 |
| 20260507084002 | 49 | 319 | 2.6 | 5.2 | 0.00 | 1.41 | 0.15 | 96 | 1004.1 |
| 20260507083003 | 49 | 335 | 2.6 | 7.8 | 0.00 | 1.41 | 0.15 | 96 | 1004.1 |
| 20260507082003 | 49 | 318 | 2.6 | 7.0 | 0.00 | 1.41 | 0.15 | 96 | 1004.3 |
| 20260507081003 | 49 | 291 | 2.6 | 8.7 | 0.00 | 1.41 | 0.15 | 96 | 1004.3 |
| 20260507080003 | 49 | 294 | 4.3 | 7.8 | 0.01 | 1.41 | 0.15 | 96 | 1004.1 |
| 20260507075002 | 49 | 289 | 2.6 | 8.7 | 0.01 | 1.41 | 0.15 | 96 | 1004.3 |
| 20260507074003 | 49 | 303 | 4.3 | 7.8 | 0.01 | 1.41 | 0.15 | 96 | 1003.5 |
| 20260507073004 | 49 | 297 | 3.5 | 6.1 | 0.01 | 1.41 | 0.15 | 96 | 1003.7 |
| 20260507072003 | 49 | 311 | 2.6 | 5.2 | 0.01 | 1.41 | 0.15 | 96 | 1003.6 |
| 20260507071024 | 49 | 313 | 0.9 | 4.3 | 0.01 | 1.41 | 0.15 | 96 | 1003.4 |
| 20260507070007 | 49 | 309 | 3.5 | 6.1 | 0.00 | 1.40 | 0.14 | 96 | 1003.2 |
| 20260507065003 | 50 | 331 | 1.7 | 7.8 | 0.00 | 1.40 | 0.14 | 96 | 1003.3 |
| 20260507064024 | 49 | 315 | 3.5 | 7.8 | 0.00 | 1.40 | 0.14 | 96 | 1003.3 |
| 20260507063003 | 49 | 313 | 7.0 | 11.3 | 0.00 | 1.40 | 0.14 | 96 | 1003.4 |
| 20260507062004 | 49 | 304 | 6.1 | 10.4 | 0.00 | 1.40 | 0.14 | 96 | 1003.1 |
| 20260507061024 | 50 | 306 | 5.2 | 9.6 | 0.00 | 1.40 | 0.14 | 96 | 1002.9 |
| 20260507060002 | 50 | 290 | 4.3 | 10.4 | 0.04 | 1.40 | 0.14 | 96 | 1003.2 |
| 20260507055003 | 50 | 287 | 7.0 | 12.2 | 0.04 | 1.40 | 0.14 | 96 | 1003.0 |
| 20260507054003 | 50 | 308 | 6.1 | 8.7 | 0.04 | 1.40 | 0.14 | 96 | 1002.7 |
| 20260507053024 | 50 | 300 | 3.5 | 6.1 | 0.04 | 1.40 | 0.14 | 96 | 1003.0 |
| 20260507052025 | 50 | 307 | 2.6 | 6.1 | 0.04 | 1.40 | 0.14 | 97 | 1003.1 |
| 20260507051003 | 50 | 308 | 4.3 | 8.7 | 0.01 | 1.37 | 0.11 | 97 | 1003.1 |
| 20260507050003 | 49 | 298 | 6.1 | 13.9 | 0.00 | 1.36 | 0.10 | 96 | 1002.8 |
| 20260507045003 | 48 | 258 | 11.3 | 18.2 | 0.10 | 1.36 | 0.10 | 96 | 1003.1 |
| 20260507044003 | 47 | 256 | 10.4 | 14.8 | 0.07 | 1.33 | 0.07 | 96 | 1002.6 |
| 20260507043003 | 46 | 244 | 4.3 | 10.4 | 0.02 | 1.28 | 0.02 | 96 | 1002.5 |
| 20260507042045 | 46 | 246 | 4.3 | 11.3 | 0.00 | 1.26 | 0.00 | 96 | 1002.6 |
| 20260507041002 | 47 | 246 | 6.1 | 10.4 | 0.00 | 1.26 | 0.00 | 96 | 1002.5 |
| 20260507040003 | 47 | 251 | 6.1 | 8.7 | 0.00 | 1.26 | 1.26 | 96 | 1002.6 |
| 20260507035003 | 47 | 241 | 6.1 | 12.2 | 0.00 | 1.26 | 1.26 | 96 | 1002.6 |
| 20260507034003 | 47 | 232 | 7.0 | 16.5 | 0.00 | 1.26 | 1.26 | 96 | 1002.8 |
| 20260507033003 | 47 | 217 | 13.0 | 19.1 | 0.00 | 1.26 | 1.26 | 96 | 1002.6 |
| 20260507032003 | 47 | 216 | 13.9 | 20.0 | 0.00 | 1.26 | 1.26 | 96 | 1002.8 |
| 20260507031024 | 47 | 208 | 15.6 | 20.0 | 0.00 | 1.26 | 1.26 | 96 | 1002.7 |
| 20260507030003 | 47 | 208 | 16.5 | 20.9 | 0.00 | 1.26 | 1.26 | 96 | 1002.8 |
| 20260507025002 | 47 | 204 | 16.5 | 22.6 | 0.00 | 1.26 | 1.26 | 96 | 1002.9 |
| 20260507024004 | 47 | 202 | 18.2 | 22.6 | 0.00 | 1.26 | 1.26 | 96 | 1002.9 |
| 20260507023025 | 47 | 198 | 20.0 | 22.6 | 0.00 | 1.26 | 1.26 | 96 | 1003.1 |
| 20260507022003 | 47 | 198 | 19.1 | 23.5 | 0.00 | 1.26 | 1.26 | 96 | 1003.3 |
| 20260507021003 | 47 | 194 | 20.0 | 23.5 | 0.00 | 1.26 | 1.26 | 96 | 1003.3 |
| 20260507020002 | 48 | 195 | 20.9 | 24.3 | 0.04 | 1.26 | 1.26 | 95 | 1003.6 |
| 20260507015024 | 48 | 194 | 20.0 | 23.5 | 0.04 | 1.26 | 1.26 | 95 | 1003.5 |
| 20260507014003 | 48 | 192 | 20.9 | 25.2 | 0.03 | 1.25 | 1.25 | 96 | 1003.6 |
| 20260507013003 | 48 | 189 | 20.9 | 26.1 | 0.03 | 1.25 | 1.25 | 95 | 1003.7 |
| 20260507011024 | 48 | 187 | 20.9 | 25.2 | 0.01 | 1.23 | 1.23 | 95 | 1003.8 |
| 20260507010003 | 48 | 186 | 20.0 | 25.2 | 0.16 | 1.22 | 1.22 | 95 | 1003.9 |
| 20260507005003 | 48 | 185 | 22.6 | 27.8 | 0.14 | 1.20 | 1.20 | 95 | 1004.0 |
| 20260507004003 | 48 | 184 | 23.5 | 27.8 | 0.10 | 1.16 | 1.16 | 95 | 1004.1 |
| 20260507003045 | 49 | 182 | 21.7 | 30.4 | 0.06 | 1.12 | 1.12 | 95 | 1004.4 |
| 20260507002023 | 48 | 180 | 24.3 | 28.7 | 0.03 | 1.09 | 1.09 | 95 | 1004.2 |
| 20260507001003 | 48 | 181 | 21.7 | 26.9 | 0.02 | 1.08 | 1.08 | 95 | 1004.3 |
| 20260507000024 | 48 | 181 | 22.6 | 26.9 | 0.00 | 1.06 | 1.06 | 95 | 1004.4 |
| 20260506235003 | 48 | 179 | 22.6 | 27.8 | 0.36 | 1.05 | 1.05 | 95 | 1004.3 |
| 20260506234003 | 48 | 180 | 22.6 | 26.9 | 0.32 | 1.01 | 1.01 | 94 | 1004.5 |
| 20260506232003 | 49 | 186 | 21.7 | 28.7 | 0.18 | 0.87 | 0.87 | 95 | 1004.6 |
| 20260506231002 | 49 | 186 | 22.6 | 27.8 | 0.06 | 0.75 | 0.75 | 95 | 1004.7 |
| 20260506230003 | 49 | 183 | 22.6 | 27.8 | 0.51 | 0.69 | 0.69 | 94 | 1004.7 |
| 20260506225002 | 49 | 184 | 22.6 | 27.8 | 0.45 | 0.63 | 0.63 | 94 | 1004.9 |
| 20260506224003 | 49 | 186 | 22.6 | 31.3 | 0.38 | 0.56 | 0.56 | 94 | 1005.0 |
| 20260506223024 | 49 | 188 | 22.6 | 26.9 | 0.25 | 0.43 | 0.43 | 94 | 1005.0 |
| 20260506222003 | 49 | 189 | 21.7 | 26.9 | 0.15 | 0.33 | 0.33 | 93 | 1005.4 |
| 20260506221003 | 49 | 189 | 20.9 | 26.9 | 0.10 | 0.28 | 0.28 | 93 | 1005.0 |
| 20260506220003 | 49 | 190 | 23.5 | 29.5 | 0.12 | 0.18 | 0.18 | 93 | 1005.2 |
| 20260506215003 | 49 | 194 | 20.9 | 26.1 | 0.09 | 0.15 | 0.15 | 93 | 1005.6 |
| 20260506214003 | 49 | 192 | 21.7 | 25.2 | 0.06 | 0.12 | 0.12 | 93 | 1005.6 |
| 20260506213002 | 50 | 191 | 20.9 | 25.2 | 0.04 | 0.10 | 0.10 | 93 | 1005.5 |
| 20260506212003 | 50 | 190 | 21.7 | 26.9 | 0.03 | 0.09 | 0.09 | 93 | 1005.6 |
| 20260506211003 | 50 | 187 | 23.5 | 27.8 | 0.02 | 0.08 | 0.08 | 93 | 1005.5 |
| 20260506210002 | 50 | 191 | 20.9 | 26.9 | 0.06 | 0.06 | 0.06 | 93 | 1005.8 |
| 20260506205024 | 50 | 192 | 21.7 | 25.2 | 0.04 | 0.04 | 0.04 | 92 | 1005.8 |
| 20260506204002 | 50 | 196 | 21.7 | 26.1 | 0.03 | 0.03 | 0.03 | 92 | 1005.9 |
| 20260506203003 | 50 | 195 | 19.1 | 24.3 | 0.02 | 0.02 | 0.02 | 92 | 1005.7 |
| 20260506202002 | 50 | 198 | 21.7 | 26.9 | 0.02 | 0.02 | 0.02 | 92 | 1005.8 |
| 20260506201003 | 50 | 197 | 24.3 | 29.5 | 0.01 | 0.01 | 0.01 | 92 | 1005.9 |
| 20260506200003 | 50 | 200 | 25.2 | 30.4 | 0.00 | 0.00 | 0.00 | 92 | 1005.9 |
| 20260506195003 | 50 | 204 | 23.5 | 28.7 | 0.00 | 0.00 | 0.00 | 91 | 1006.1 |
| 20260506194003 | 51 | 200 | 24.3 | 28.7 | 0.00 | 0.00 | 0.00 | 91 | 1005.6 |
| 20260506193002 | 50 | 193 | 23.5 | 28.7 | 0.00 | 0.00 | 0.00 | 91 | 1005.5 |
| 20260506192003 | 50 | 186 | 23.5 | 27.8 | 0.00 | 0.00 | 0.00 | 91 | 1005.5 |
| 20260506191003 | 50 | 186 | 23.5 | 28.7 | 0.00 | 0.00 | 0.00 | 91 | 1005.6 |
| 20260506190003 | 50 | 187 | 22.6 | 28.7 | 0.00 | 0.00 | 0.00 | 91 | 1005.7 |
| 20260506185003 | 50 | 190 | 21.7 | 28.7 | 0.00 | 0.00 | 0.00 | 91 | 1006.0 |
| 20260506184002 | 50 | 190 | 22.6 | 26.9 | 0.00 | 0.00 | 0.00 | 91 | 1006.0 |
| 20260506183003 | 50 | 189 | 21.7 | 26.1 | 0.00 | 0.00 | 0.00 | 91 | 1006.3 |
| 20260506182024 | 50 | 189 | 20.9 | 23.5 | 0.00 | 0.00 | 0.00 | 91 | 1006.4 |
| 20260506181003 | 50 | 191 | 19.1 | 23.5 | 0.00 | 0.00 | 0.00 | 91 | 1006.5 |
| 20260506180004 | 50 | 191 | 19.1 | 22.6 | 0.00 | 0.00 | 0.00 | 91 | 1006.4 |
| 20260506175002 | 50 | 188 | 18.2 | 22.6 | 0.00 | 0.00 | 0.00 | 91 | 1006.6 |
| 20260506174003 | 50 | 192 | 18.2 | 20.9 | 0.00 | 0.00 | 0.00 | 91 | 1006.6 |
| 20260506172003 | 50 | 195 | 15.6 | 19.1 | 0.00 | 0.00 | 0.00 | 91 | 1006.9 |
| 20260506171002 | 50 | 199 | 14.8 | 20.0 | 0.00 | 0.00 | 0.00 | 90 | 1007.1 |
| 20260506170003 | 50 | 200 | 16.5 | 20.0 | 0.00 | 0.00 | 0.00 | 91 | 1007.2 |
| 20260506165003 | 50 | 205 | 15.6 | 18.2 | 0.00 | 0.00 | 0.00 | 91 | 1007.5 |
| 20260506164024 | 50 | 206 | 14.8 | 18.2 | 0.00 | 0.00 | 0.00 | 90 | 1007.6 |
| 20260506163003 | 50 | 203 | 13.9 | 18.2 | 0.00 | 0.00 | 0.00 | 91 | 1008.1 |
| 20260506162002 | 50 | 203 | 13.9 | 19.1 | 0.00 | 0.00 | 0.00 | 91 | 1008.2 |
| 20260506161003 | 50 | 199 | 14.8 | 17.4 | 0.00 | 0.00 | 0.00 | 91 | 1008.3 |
| 20260506160003 | 50 | 204 | 15.6 | 19.1 | 0.00 | 0.00 | 0.00 | 91 | 1008.4 |
| 20260506155003 | 50 | 207 | 15.6 | 20.9 | 0.00 | 0.00 | 0.00 | 90 | 1008.7 |
| 20260506154003 | 50 | 203 | 16.5 | 20.0 | 0.00 | 0.00 | 0.00 | 90 | 1008.5 |
| 20260506153002 | 50 | 211 | 13.0 | 16.5 | 0.00 | 0.00 | 0.00 | 90 | 1008.6 |
| 20260506152003 | 51 | 204 | 14.8 | 17.4 | 0.00 | 0.00 | 0.00 | 91 | 1008.6 |
| 20260506151003 | 51 | 200 | 15.6 | 18.2 | 0.00 | 0.00 | 0.00 | 91 | 1008.4 |
| 20260506150044 | 50 | 194 | 16.5 | 20.9 | 0.00 | 0.00 | 0.00 | 91 | 1008.2 |
| 20260506145003 | 51 | 196 | 15.6 | 19.1 | 0.00 | 0.00 | 0.00 | 91 | 1008.1 |
| 20260506144002 | 50 | 205 | 15.6 | 19.1 | 0.00 | 0.00 | 0.00 | 91 | 1008.4 |
| 20260506143003 | 50 | 213 | 11.3 | 15.6 | 0.00 | 0.00 | 0.00 | 92 | 1008.6 |
| 20260506142003 | 50 | 216 | 12.2 | 16.5 | 0.00 | 0.00 | 0.00 | 92 | 1008.7 |
| 20260506141002 | 50 | 210 | 13.9 | 18.2 | 0.00 | 0.00 | 0.00 | 92 | 1008.7 |
| 20260506140024 | 50 | 207 | 13.9 | 17.4 | 0.00 | 0.00 | 0.00 | 92 | 1008.8 |
| 20260506135003 | 49 | 212 | 12.2 | 16.5 | 0.00 | 0.00 | 0.00 | 92 | 1008.9 |